Terminal Aerodrome Forecast
Issued by NWS Wilmington, OH

Current Version | Previous Version | Graphics & Text | Print | Product List | Glossary On
Versions: 1 2 3 4 5 6 7 8 9 10 11 12 13 14 15 16 17 18
028
FTUS41 KILN 070328 AAA
TAFCMH
TAF AMD
KCMH 070328Z 0703/0724 29012G18KT P6SM OVC012
      TEMPO 0703/0705 3SM -DZ BR OVC008
     FM070700 28010KT P6SM OVC018
     FM070900 27007KT P6SM SCT200
     FM071300 24006KT P6SM BKN200
     FM072300 25007KT P6SM BKN150=

USA.gov is the U.S. government's official web portal to all federal, state and local government web resources and services.